sensor_id;sensor_type;location;lat;lon;timestamp;P1;durP1;ratioP1;P2;durP2;ratioP2
59089;SDS011;44878;50.102;18.982;2022-12-20T00:02:24;44.77;;;35.30;;
59089;SDS011;44878;50.102;18.982;2022-12-20T00:04:50;40.20;;;34.03;;
59089;SDS011;44878;50.102;18.982;2022-12-20T00:07:16;37.73;;;32.90;;
59089;SDS011;44878;50.102;18.982;2022-12-20T00:09:42;40.33;;;34.23;;
59089;SDS011;44878;50.102;18.982;2022-12-20T00:12:08;43.00;;;35.07;;
59089;SDS011;44878;50.102;18.982;2022-12-20T00:14:34;42.27;;;33.63;;
59089;SDS011;44878;50.102;18.982;2022-12-20T00:17:00;38.67;;;31.73;;
59089;SDS011;44878;50.102;18.982;2022-12-20T00:19:26;40.13;;;31.93;;
59089;SDS011;44878;50.102;18.982;2022-12-20T00:21:52;35.07;;;30.10;;
59089;SDS011;44878;50.102;18.982;2022-12-20T00:24:18;33.80;;;29.83;;
59089;SDS011;44878;50.102;18.982;2022-12-20T00:26:44;35.87;;;30.07;;
59089;SDS011;44878;50.102;18.982;2022-12-20T00:29:10;36.07;;;30.20;;
59089;SDS011;44878;50.102;18.982;2022-12-20T00:31:37;35.70;;;30.47;;
59089;SDS011;44878;50.102;18.982;2022-12-20T00:34:03;37.37;;;32.07;;
59089;SDS011;44878;50.102;18.982;2022-12-20T00:36:30;34.10;;;28.60;;
59089;SDS011;44878;50.102;18.982;2022-12-20T00:38:58;36.75;;;30.77;;
59089;SDS011;44878;50.102;18.982;2022-12-20T00:41:26;35.57;;;29.33;;
59089;SDS011;44878;50.102;18.982;2022-12-20T00:43:54;36.43;;;29.73;;
59089;SDS011;44878;50.102;18.982;2022-12-20T00:46:20;38.30;;;30.77;;
59089;SDS011;44878;50.102;18.982;2022-12-20T00:48:47;33.83;;;29.98;;
59089;SDS011;44878;50.102;18.982;2022-12-20T00:51:19;34.43;;;29.87;;
59089;SDS011;44878;50.102;18.982;2022-12-20T00:53:46;34.70;;;29.70;;
59089;SDS011;44878;50.102;18.982;2022-12-20T00:56:16;31.30;;;27.90;;
59089;SDS011;44878;50.102;18.982;2022-12-20T00:58:46;33.17;;;29.23;;
59089;SDS011;44878;50.102;18.982;2022-12-20T01:01:17;33.10;;;28.13;;
59089;SDS011;44878;50.102;18.982;2022-12-20T01:03:48;34.23;;;28.57;;
59089;SDS011;44878;50.102;18.982;2022-12-20T01:08:42;34.90;;;29.23;;
59089;SDS011;44878;50.102;18.982;2022-12-20T01:11:10;32.63;;;28.40;;
59089;SDS011;44878;50.102;18.982;2022-12-20T01:13:41;32.57;;;27.90;;
59089;SDS011;44878;50.102;18.982;2022-12-20T01:16:22;34.37;;;30.00;;
59089;SDS011;44878;50.102;18.982;2022-12-20T01:18:51;34.50;;;30.63;;
59089;SDS011;44878;50.102;18.982;2022-12-20T01:21:18;35.78;;;30.33;;
59089;SDS011;44878;50.102;18.982;2022-12-20T01:23:46;34.73;;;29.93;;
59089;SDS011;44878;50.102;18.982;2022-12-20T01:26:18;33.30;;;28.77;;
59089;SDS011;44878;50.102;18.982;2022-12-20T01:28:46;32.87;;;28.93;;
59089;SDS011;44878;50.102;18.982;2022-12-20T01:31:17;33.27;;;28.23;;
59089;SDS011;44878;50.102;18.982;2022-12-20T01:33:44;30.52;;;26.70;;
59089;SDS011;44878;50.102;18.982;2022-12-20T01:36:16;30.70;;;27.40;;
59089;SDS011;44878;50.102;18.982;2022-12-20T01:38:44;31.10;;;27.07;;
59089;SDS011;44878;50.102;18.982;2022-12-20T01:41:16;31.60;;;28.23;;
59089;SDS011;44878;50.102;18.982;2022-12-20T01:43:53;31.77;;;28.00;;
59089;SDS011;44878;50.102;18.982;2022-12-20T01:46:29;31.37;;;27.97;;
59089;SDS011;44878;50.102;18.982;2022-12-20T01:52:14;32.10;;;28.47;;
59089;SDS011;44878;50.102;18.982;2022-12-20T01:54:49;32.13;;;28.50;;
59089;SDS011;44878;50.102;18.982;2022-12-20T01:57:20;32.73;;;27.80;;
59089;SDS011;44878;50.102;18.982;2022-12-20T01:59:51;31.07;;;27.37;;
59089;SDS011;44878;50.102;18.982;2022-12-20T02:02:18;31.75;;;27.35;;
59089;SDS011;44878;50.102;18.982;2022-12-20T02:04:44;32.93;;;28.33;;
59089;SDS011;44878;50.102;18.982;2022-12-20T02:07:11;31.93;;;28.27;;
59089;SDS011;44878;50.102;18.982;2022-12-20T02:09:43;33.17;;;28.30;;
59089;SDS011;44878;50.102;18.982;2022-12-20T02:12:22;33.10;;;28.83;;
59089;SDS011;44878;50.102;18.982;2022-12-20T02:31:51;32.20;;;28.47;;
59089;SDS011;44878;50.102;18.982;2022-12-20T02:34:25;32.27;;;28.77;;
59089;SDS011;44878;50.102;18.982;2022-12-20T02:36:53;31.83;;;28.47;;
59089;SDS011;44878;50.102;18.982;2022-12-20T02:39:19;32.87;;;29.47;;
59089;SDS011;44878;50.102;18.982;2022-12-20T02:41:49;33.13;;;28.50;;
59089;SDS011;44878;50.102;18.982;2022-12-20T02:44:20;33.70;;;28.27;;
59089;SDS011;44878;50.102;18.982;2022-12-20T02:47:11;33.93;;;29.37;;
59089;SDS011;44878;50.102;18.982;2022-12-20T02:49:43;30.53;;;27.00;;
59089;SDS011;44878;50.102;18.982;2022-12-20T02:52:11;31.13;;;26.97;;
59089;SDS011;44878;50.102;18.982;2022-12-20T02:54:40;32.90;;;28.00;;
59089;SDS011;44878;50.102;18.982;2022-12-20T02:58:08;31.57;;;28.17;;
59089;SDS011;44878;50.102;18.982;2022-12-20T03:00:13;32.07;;;28.23;;
59089;SDS011;44878;50.102;18.982;2022-12-20T03:02:43;33.47;;;29.33;;
59089;SDS011;44878;50.102;18.982;2022-12-20T03:05:28;33.80;;;30.10;;
59089;SDS011;44878;50.102;18.982;2022-12-20T03:07:56;32.25;;;28.75;;
59089;SDS011;44878;50.102;18.982;2022-12-20T03:10:22;36.63;;;30.30;;
59089;SDS011;44878;50.102;18.982;2022-12-20T03:12:48;33.90;;;30.20;;
59089;SDS011;44878;50.102;18.982;2022-12-20T03:15:14;34.90;;;29.93;;
59089;SDS011;44878;50.102;18.982;2022-12-20T03:17:40;35.60;;;31.07;;
59089;SDS011;44878;50.102;18.982;2022-12-20T03:20:06;36.77;;;30.03;;
59089;SDS011;44878;50.102;18.982;2022-12-20T03:22:33;35.57;;;31.07;;
59089;SDS011;44878;50.102;18.982;2022-12-20T03:24:59;34.43;;;29.77;;
59089;SDS011;44878;50.102;18.982;2022-12-20T03:27:25;33.10;;;29.43;;
59089;SDS011;44878;50.102;18.982;2022-12-20T03:29:54;34.03;;;29.27;;
59089;SDS011;44878;50.102;18.982;2022-12-20T03:32:20;30.83;;;27.17;;
59089;SDS011;44878;50.102;18.982;2022-12-20T03:34:47;33.20;;;29.60;;
59089;SDS011;44878;50.102;18.982;2022-12-20T03:37:13;32.20;;;28.43;;
59089;SDS011;44878;50.102;18.982;2022-12-20T03:39:39;34.87;;;29.90;;
59089;SDS011;44878;50.102;18.982;2022-12-20T03:42:05;32.77;;;28.70;;
59089;SDS011;44878;50.102;18.982;2022-12-20T03:44:31;34.53;;;30.80;;
59089;SDS011;44878;50.102;18.982;2022-12-20T03:46:57;31.73;;;28.00;;
59089;SDS011;44878;50.102;18.982;2022-12-20T03:49:23;37.37;;;31.97;;
59089;SDS011;44878;50.102;18.982;2022-12-20T03:51:49;36.60;;;31.07;;
59089;SDS011;44878;50.102;18.982;2022-12-20T03:54:15;35.27;;;31.23;;
59089;SDS011;44878;50.102;18.982;2022-12-20T03:56:41;35.13;;;30.37;;
59089;SDS011;44878;50.102;18.982;2022-12-20T03:59:08;36.53;;;31.73;;
59089;SDS011;44878;50.102;18.982;2022-12-20T04:01:34;37.67;;;32.87;;
59089;SDS011;44878;50.102;18.982;2022-12-20T04:04:01;36.78;;;31.58;;
59089;SDS011;44878;50.102;18.982;2022-12-20T04:06:27;34.50;;;30.77;;
59089;SDS011;44878;50.102;18.982;2022-12-20T04:08:54;39.33;;;32.77;;
59089;SDS011;44878;50.102;18.982;2022-12-20T04:11:20;37.90;;;32.53;;
59089;SDS011;44878;50.102;18.982;2022-12-20T04:13:50;36.90;;;32.80;;
59089;SDS011;44878;50.102;18.982;2022-12-20T04:16:19;37.87;;;32.30;;
59089;SDS011;44878;50.102;18.982;2022-12-20T04:18:49;37.37;;;33.17;;
59089;SDS011;44878;50.102;18.982;2022-12-20T04:21:19;38.85;;;34.15;;
59089;SDS011;44878;50.102;18.982;2022-12-20T04:23:50;37.47;;;32.80;;
59089;SDS011;44878;50.102;18.982;2022-12-20T04:26:16;41.13;;;34.17;;
59089;SDS011;44878;50.102;18.982;2022-12-20T04:28:42;36.87;;;32.80;;
59089;SDS011;44878;50.102;18.982;2022-12-20T04:31:08;37.83;;;32.53;;
59089;SDS011;44878;50.102;18.982;2022-12-20T04:33:35;41.50;;;35.70;;
59089;SDS011;44878;50.102;18.982;2022-12-20T04:36:01;42.33;;;36.23;;
59089;SDS011;44878;50.102;18.982;2022-12-20T04:38:27;41.53;;;35.50;;
59089;SDS011;44878;50.102;18.982;2022-12-20T04:40:53;39.80;;;34.50;;
59089;SDS011;44878;50.102;18.982;2022-12-20T04:43:20;40.25;;;35.33;;
59089;SDS011;44878;50.102;18.982;2022-12-20T04:45:51;41.05;;;35.33;;
59089;SDS011;44878;50.102;18.982;2022-12-20T04:48:21;43.33;;;37.17;;
59089;SDS011;44878;50.102;18.982;2022-12-20T04:50:51;38.37;;;34.27;;
59089;SDS011;44878;50.102;18.982;2022-12-20T04:53:18;41.25;;;35.45;;
59089;SDS011;44878;50.102;18.982;2022-12-20T04:56:03;41.63;;;36.30;;
59089;SDS011;44878;50.102;18.982;2022-12-20T04:58:30;42.87;;;36.83;;
59089;SDS011;44878;50.102;18.982;2022-12-20T05:00:59;42.63;;;36.13;;
59089;SDS011;44878;50.102;18.982;2022-12-20T05:03:25;44.77;;;37.60;;
59089;SDS011;44878;50.102;18.982;2022-12-20T05:05:52;43.67;;;37.70;;
59089;SDS011;44878;50.102;18.982;2022-12-20T05:08:18;42.38;;;37.67;;
59089;SDS011;44878;50.102;18.982;2022-12-20T05:10:45;43.80;;;36.70;;
59089;SDS011;44878;50.102;18.982;2022-12-20T05:15:41;45.53;;;37.77;;
59089;SDS011;44878;50.102;18.982;2022-12-20T05:18:11;41.73;;;36.93;;
59089;SDS011;44878;50.102;18.982;2022-12-20T05:20:37;45.97;;;38.53;;
59089;SDS011;44878;50.102;18.982;2022-12-20T05:23:03;44.33;;;38.90;;
59089;SDS011;44878;50.102;18.982;2022-12-20T05:26:04;44.43;;;38.00;;
59089;SDS011;44878;50.102;18.982;2022-12-20T05:28:42;46.30;;;38.43;;
59089;SDS011;44878;50.102;18.982;2022-12-20T05:31:08;45.63;;;39.30;;
59089;SDS011;44878;50.102;18.982;2022-12-20T05:33:34;44.60;;;37.77;;
59089;SDS011;44878;50.102;18.982;2022-12-20T05:36:00;45.10;;;38.03;;
59089;SDS011;44878;50.102;18.982;2022-12-20T05:38:26;45.00;;;38.03;;
59089;SDS011;44878;50.102;18.982;2022-12-20T05:40:52;45.40;;;37.93;;
59089;SDS011;44878;50.102;18.982;2022-12-20T05:43:21;42.77;;;37.30;;
59089;SDS011;44878;50.102;18.982;2022-12-20T05:45:48;43.47;;;37.37;;
59089;SDS011;44878;50.102;18.982;2022-12-20T05:48:17;46.10;;;39.70;;
59089;SDS011;44878;50.102;18.982;2022-12-20T05:50:44;47.73;;;41.53;;
59089;SDS011;44878;50.102;18.982;2022-12-20T05:53:11;45.00;;;38.07;;
59089;SDS011;44878;50.102;18.982;2022-12-20T05:55:48;47.20;;;39.92;;
59089;SDS011;44878;50.102;18.982;2022-12-20T06:00:42;47.13;;;40.00;;
59089;SDS011;44878;50.102;18.982;2022-12-20T06:03:09;48.88;;;41.65;;
59089;SDS011;44878;50.102;18.982;2022-12-20T06:05:39;49.20;;;41.30;;
59089;SDS011;44878;50.102;18.982;2022-12-20T06:08:08;46.73;;;38.97;;
59089;SDS011;44878;50.102;18.982;2022-12-20T06:10:34;48.53;;;42.67;;
59089;SDS011;44878;50.102;18.982;2022-12-20T06:13:01;49.33;;;41.17;;
59089;SDS011;44878;50.102;18.982;2022-12-20T06:15:27;47.60;;;41.93;;
59089;SDS011;44878;50.102;18.982;2022-12-20T06:17:54;48.95;;;41.60;;
59089;SDS011;44878;50.102;18.982;2022-12-20T06:20:21;48.03;;;40.90;;
59089;SDS011;44878;50.102;18.982;2022-12-20T06:22:47;50.30;;;42.67;;
59089;SDS011;44878;50.102;18.982;2022-12-20T06:25:13;49.27;;;40.67;;
59089;SDS011;44878;50.102;18.982;2022-12-20T06:27:40;51.60;;;43.27;;
59089;SDS011;44878;50.102;18.982;2022-12-20T06:30:07;49.80;;;41.67;;
59089;SDS011;44878;50.102;18.982;2022-12-20T06:32:35;52.33;;;42.75;;
59089;SDS011;44878;50.102;18.982;2022-12-20T06:35:01;51.77;;;44.17;;
59089;SDS011;44878;50.102;18.982;2022-12-20T06:37:27;46.80;;;41.17;;
59089;SDS011;44878;50.102;18.982;2022-12-20T06:39:53;46.47;;;39.30;;
59089;SDS011;44878;50.102;18.982;2022-12-20T06:42:19;48.30;;;40.53;;
59089;SDS011;44878;50.102;18.982;2022-12-20T06:44:45;48.73;;;41.93;;
59089;SDS011;44878;50.102;18.982;2022-12-20T06:47:13;51.90;;;44.60;;
59089;SDS011;44878;50.102;18.982;2022-12-20T06:49:39;49.57;;;42.33;;
59089;SDS011;44878;50.102;18.982;2022-12-20T06:52:05;49.07;;;42.40;;
59089;SDS011;44878;50.102;18.982;2022-12-20T06:54:31;48.43;;;42.23;;
59089;SDS011;44878;50.102;18.982;2022-12-20T06:56:57;49.57;;;41.57;;
59089;SDS011;44878;50.102;18.982;2022-12-20T06:59:23;50.47;;;42.63;;
59089;SDS011;44878;50.102;18.982;2022-12-20T07:01:49;49.63;;;41.63;;
59089;SDS011;44878;50.102;18.982;2022-12-20T07:04:15;50.27;;;42.23;;
59089;SDS011;44878;50.102;18.982;2022-12-20T07:06:41;46.97;;;41.70;;
59089;SDS011;44878;50.102;18.982;2022-12-20T07:09:07;47.73;;;40.17;;
59089;SDS011;44878;50.102;18.982;2022-12-20T07:11:34;46.47;;;40.93;;
59089;SDS011;44878;50.102;18.982;2022-12-20T07:14:00;47.27;;;41.23;;
59089;SDS011;44878;50.102;18.982;2022-12-20T07:16:26;49.47;;;41.40;;
59089;SDS011;44878;50.102;18.982;2022-12-20T07:18:52;46.47;;;41.47;;
59089;SDS011;44878;50.102;18.982;2022-12-20T07:21:18;46.80;;;40.10;;
59089;SDS011;44878;50.102;18.982;2022-12-20T07:23:45;44.43;;;39.20;;
59089;SDS011;44878;50.102;18.982;2022-12-20T07:26:12;47.30;;;40.50;;
59089;SDS011;44878;50.102;18.982;2022-12-20T07:28:39;51.03;;;43.78;;
59089;SDS011;44878;50.102;18.982;2022-12-20T07:31:08;46.83;;;39.93;;
59089;SDS011;44878;50.102;18.982;2022-12-20T07:33:34;46.87;;;39.70;;
59089;SDS011;44878;50.102;18.982;2022-12-20T07:36:06;42.83;;;37.53;;
59089;SDS011;44878;50.102;18.982;2022-12-20T07:38:34;45.07;;;38.73;;
59089;SDS011;44878;50.102;18.982;2022-12-20T07:41:11;44.37;;;39.50;;
59089;SDS011;44878;50.102;18.982;2022-12-20T07:46:05;45.03;;;39.23;;
59089;SDS011;44878;50.102;18.982;2022-12-20T07:48:32;44.97;;;39.65;;
59089;SDS011;44878;50.102;18.982;2022-12-20T07:51:05;42.38;;;37.53;;
59089;SDS011;44878;50.102;18.982;2022-12-20T07:53:35;44.13;;;37.27;;
59089;SDS011;44878;50.102;18.982;2022-12-20T07:56:05;46.77;;;39.03;;
59089;SDS011;44878;50.102;18.982;2022-12-20T07:58:34;44.80;;;38.50;;
59089;SDS011;44878;50.102;18.982;2022-12-20T08:01:02;42.73;;;37.20;;
59089;SDS011;44878;50.102;18.982;2022-12-20T08:03:35;43.97;;;38.53;;
59089;SDS011;44878;50.102;18.982;2022-12-20T08:06:04;42.67;;;37.57;;
59089;SDS011;44878;50.102;18.982;2022-12-20T08:08:32;40.88;;;35.95;;
59089;SDS011;44878;50.102;18.982;2022-12-20T08:11:01;42.97;;;36.17;;
59089;SDS011;44878;50.102;18.982;2022-12-20T08:13:30;43.05;;;37.10;;
59089;SDS011;44878;50.102;18.982;2022-12-20T08:15:57;42.37;;;37.77;;
59089;SDS011;44878;50.102;18.982;2022-12-20T08:18:24;42.10;;;36.75;;
59089;SDS011;44878;50.102;18.982;2022-12-20T08:20:51;45.00;;;38.23;;
59089;SDS011;44878;50.102;18.982;2022-12-20T08:23:17;42.13;;;36.97;;
59089;SDS011;44878;50.102;18.982;2022-12-20T08:25:44;43.25;;;38.25;;
59089;SDS011;44878;50.102;18.982;2022-12-20T08:28:10;42.73;;;37.20;;
59089;SDS011;44878;50.102;18.982;2022-12-20T08:30:36;43.90;;;37.67;;
59089;SDS011;44878;50.102;18.982;2022-12-20T08:33:02;41.37;;;36.87;;
59089;SDS011;44878;50.102;18.982;2022-12-20T08:35:28;42.13;;;37.43;;
59089;SDS011;44878;50.102;18.982;2022-12-20T08:37:54;44.53;;;38.87;;
59089;SDS011;44878;50.102;18.982;2022-12-20T08:40:21;40.90;;;35.83;;
59089;SDS011;44878;50.102;18.982;2022-12-20T08:42:51;46.30;;;39.93;;
59089;SDS011;44878;50.102;18.982;2022-12-20T08:45:21;41.07;;;36.53;;
59089;SDS011;44878;50.102;18.982;2022-12-20T08:47:47;40.50;;;36.10;;
59089;SDS011;44878;50.102;18.982;2022-12-20T08:50:13;40.90;;;36.40;;
59089;SDS011;44878;50.102;18.982;2022-12-20T08:52:39;40.40;;;36.20;;
59089;SDS011;44878;50.102;18.982;2022-12-20T08:55:09;41.67;;;36.20;;
59089;SDS011;44878;50.102;18.982;2022-12-20T08:57:34;39.73;;;35.43;;
59089;SDS011;44878;50.102;18.982;2022-12-20T09:00:01;39.73;;;33.97;;
59089;SDS011;44878;50.102;18.982;2022-12-20T09:02:27;43.07;;;36.03;;
59089;SDS011;44878;50.102;18.982;2022-12-20T09:04:54;38.77;;;34.50;;
59089;SDS011;44878;50.102;18.982;2022-12-20T09:07:21;38.75;;;34.67;;
59089;SDS011;44878;50.102;18.982;2022-12-20T09:09:47;41.67;;;35.40;;
59089;SDS011;44878;50.102;18.982;2022-12-20T09:12:13;44.03;;;35.63;;
59089;SDS011;44878;50.102;18.982;2022-12-20T09:14:39;40.13;;;35.10;;
59089;SDS011;44878;50.102;18.982;2022-12-20T09:17:05;43.30;;;36.10;;
59089;SDS011;44878;50.102;18.982;2022-12-20T09:19:32;38.57;;;34.23;;
59089;SDS011;44878;50.102;18.982;2022-12-20T09:21:58;41.77;;;35.40;;
59089;SDS011;44878;50.102;18.982;2022-12-20T09:24:24;39.00;;;34.43;;
59089;SDS011;44878;50.102;18.982;2022-12-20T09:26:50;37.60;;;33.17;;
59089;SDS011;44878;50.102;18.982;2022-12-20T09:29:16;37.53;;;33.33;;
59089;SDS011;44878;50.102;18.982;2022-12-20T09:31:43;38.88;;;33.75;;
59089;SDS011;44878;50.102;18.982;2022-12-20T09:34:09;40.33;;;33.67;;
59089;SDS011;44878;50.102;18.982;2022-12-20T09:36:35;38.00;;;32.80;;
59089;SDS011;44878;50.102;18.982;2022-12-20T09:39:02;38.38;;;32.60;;
59089;SDS011;44878;50.102;18.982;2022-12-20T09:46:40;34.87;;;31.07;;
59089;SDS011;44878;50.102;18.982;2022-12-20T09:49:10;34.67;;;30.97;;
59089;SDS011;44878;50.102;18.982;2022-12-20T09:54:36;37.67;;;31.97;;
59089;SDS011;44878;50.102;18.982;2022-12-20T09:59:47;38.23;;;33.87;;
59089;SDS011;44878;50.102;18.982;2022-12-20T10:02:14;37.43;;;32.23;;
59089;SDS011;44878;50.102;18.982;2022-12-20T10:04:45;36.87;;;31.33;;
59089;SDS011;44878;50.102;18.982;2022-12-20T10:07:17;35.23;;;31.13;;
59089;SDS011;44878;50.102;18.982;2022-12-20T10:10:18;36.23;;;31.07;;
59089;SDS011;44878;50.102;18.982;2022-12-20T10:12:58;35.33;;;31.23;;
59089;SDS011;44878;50.102;18.982;2022-12-20T10:15:48;38.50;;;31.77;;
59089;SDS011;44878;50.102;18.982;2022-12-20T10:21:16;37.03;;;32.53;;
59089;SDS011;44878;50.102;18.982;2022-12-20T10:26:55;38.77;;;32.83;;
59089;SDS011;44878;50.102;18.982;2022-12-20T10:29:27;35.03;;;30.33;;
59089;SDS011;44878;50.102;18.982;2022-12-20T10:31:57;36.47;;;32.17;;
59089;SDS011;44878;50.102;18.982;2022-12-20T10:34:25;39.27;;;34.40;;
59089;SDS011;44878;50.102;18.982;2022-12-20T10:37:11;38.33;;;33.80;;
59089;SDS011;44878;50.102;18.982;2022-12-20T10:39:42;37.33;;;33.22;;
59089;SDS011;44878;50.102;18.982;2022-12-20T10:42:57;36.27;;;32.13;;
59089;SDS011;44878;50.102;18.982;2022-12-20T10:47:40;41.03;;;36.13;;
59089;SDS011;44878;50.102;18.982;2022-12-20T10:50:19;38.87;;;34.37;;
59089;SDS011;44878;50.102;18.982;2022-12-20T10:55:36;38.30;;;33.07;;
59089;SDS011;44878;50.102;18.982;2022-12-20T10:58:14;36.53;;;32.47;;
59089;SDS011;44878;50.102;18.982;2022-12-20T11:00:43;38.47;;;34.07;;
59089;SDS011;44878;50.102;18.982;2022-12-20T11:03:11;37.35;;;32.35;;
59089;SDS011;44878;50.102;18.982;2022-12-20T11:05:51;39.73;;;34.70;;
59089;SDS011;44878;50.102;18.982;2022-12-20T11:08:27;38.30;;;33.87;;
59089;SDS011;44878;50.102;18.982;2022-12-20T11:13:47;37.83;;;32.50;;
59089;SDS011;44878;50.102;18.982;2022-12-20T11:19:05;39.45;;;32.75;;
59089;SDS011;44878;50.102;18.982;2022-12-20T11:21:44;36.20;;;30.80;;
59089;SDS011;44878;50.102;18.982;2022-12-20T11:24:35;35.80;;;31.90;;
59089;SDS011;44878;50.102;18.982;2022-12-20T11:30:23;37.17;;;32.73;;
59089;SDS011;44878;50.102;18.982;2022-12-20T11:35:44;36.97;;;32.93;;
59089;SDS011;44878;50.102;18.982;2022-12-20T11:38:22;36.93;;;32.30;;
59089;SDS011;44878;50.102;18.982;2022-12-20T11:51:37;37.60;;;32.27;;
59089;SDS011;44878;50.102;18.982;2022-12-20T11:54:22;38.37;;;32.83;;
59089;SDS011;44878;50.102;18.982;2022-12-20T11:56:58;35.67;;;31.77;;
59089;SDS011;44878;50.102;18.982;2022-12-20T11:59:36;35.47;;;30.67;;
59089;SDS011;44878;50.102;18.982;2022-12-20T12:05:04;37.53;;;33.37;;
59089;SDS011;44878;50.102;18.982;2022-12-20T12:07:35;37.47;;;33.07;;
59089;SDS011;44878;50.102;18.982;2022-12-20T12:10:05;39.17;;;34.23;;
59089;SDS011;44878;50.102;18.982;2022-12-20T12:17:43;39.43;;;35.07;;
59089;SDS011;44878;50.102;18.982;2022-12-20T12:23:02;40.20;;;35.60;;
59089;SDS011;44878;50.102;18.982;2022-12-20T12:25:52;41.77;;;35.43;;
59089;SDS011;44878;50.102;18.982;2022-12-20T12:28:21;39.10;;;34.80;;
59089;SDS011;44878;50.102;18.982;2022-12-20T12:30:59;38.73;;;34.43;;
59089;SDS011;44878;50.102;18.982;2022-12-20T12:33:34;39.87;;;35.20;;
59089;SDS011;44878;50.102;18.982;2022-12-20T12:45:14;42.07;;;36.37;;
59089;SDS011;44878;50.102;18.982;2022-12-20T12:47:53;40.47;;;36.17;;
59089;SDS011;44878;50.102;18.982;2022-12-20T12:50:28;42.17;;;36.67;;
59089;SDS011;44878;50.102;18.982;2022-12-20T12:52:58;42.13;;;37.37;;
59089;SDS011;44878;50.102;18.982;2022-12-20T12:55:34;40.70;;;36.20;;
59089;SDS011;44878;50.102;18.982;2022-12-20T13:00:51;40.53;;;36.13;;
59089;SDS011;44878;50.102;18.982;2022-12-20T13:03:39;41.47;;;36.47;;
59089;SDS011;44878;50.102;18.982;2022-12-20T13:11:38;38.20;;;34.03;;
59089;SDS011;44878;50.102;18.982;2022-12-20T13:27:13;42.67;;;36.77;;
59089;SDS011;44878;50.102;18.982;2022-12-20T13:33:19;46.33;;;41.60;;
59089;SDS011;44878;50.102;18.982;2022-12-20T13:38:38;41.63;;;36.73;;
59089;SDS011;44878;50.102;18.982;2022-12-20T13:44:07;41.42;;;36.10;;
59089;SDS011;44878;50.102;18.982;2022-12-20T13:46:41;40.77;;;36.30;;
59089;SDS011;44878;50.102;18.982;2022-12-20T13:49:39;41.80;;;36.33;;
59089;SDS011;44878;50.102;18.982;2022-12-20T13:54:40;43.23;;;37.07;;
59089;SDS011;44878;50.102;18.982;2022-12-20T13:57:13;44.47;;;38.83;;
59089;SDS011;44878;50.102;18.982;2022-12-20T13:59:46;45.40;;;38.87;;
59089;SDS011;44878;50.102;18.982;2022-12-20T14:02:21;44.77;;;38.07;;
59089;SDS011;44878;50.102;18.982;2022-12-20T14:08:13;44.37;;;38.83;;
59089;SDS011;44878;50.102;18.982;2022-12-20T14:10:42;45.17;;;40.33;;
59089;SDS011;44878;50.102;18.982;2022-12-20T14:13:24;44.43;;;39.67;;
59089;SDS011;44878;50.102;18.982;2022-12-20T14:15:53;44.33;;;39.50;;
59089;SDS011;44878;50.102;18.982;2022-12-20T14:18:21;45.08;;;40.10;;
59089;SDS011;44878;50.102;18.982;2022-12-20T14:20:53;44.27;;;39.50;;
59089;SDS011;44878;50.102;18.982;2022-12-20T14:23:23;46.47;;;39.87;;
59089;SDS011;44878;50.102;18.982;2022-12-20T14:26:01;43.67;;;38.90;;
59089;SDS011;44878;50.102;18.982;2022-12-20T14:28:35;48.27;;;40.00;;
59089;SDS011;44878;50.102;18.982;2022-12-20T14:31:05;47.20;;;42.10;;
59089;SDS011;44878;50.102;18.982;2022-12-20T14:33:46;45.40;;;40.10;;
59089;SDS011;44878;50.102;18.982;2022-12-20T14:38:43;46.70;;;41.73;;
59089;SDS011;44878;50.102;18.982;2022-12-20T14:44:00;45.40;;;40.57;;
59089;SDS011;44878;50.102;18.982;2022-12-20T14:46:29;49.23;;;43.70;;
59089;SDS011;44878;50.102;18.982;2022-12-20T14:49:14;46.17;;;41.00;;
59089;SDS011;44878;50.102;18.982;2022-12-20T14:51:45;47.97;;;42.20;;
59089;SDS011;44878;50.102;18.982;2022-12-20T14:54:15;48.45;;;43.00;;
59089;SDS011;44878;50.102;18.982;2022-12-20T14:56:48;47.77;;;42.57;;
59089;SDS011;44878;50.102;18.982;2022-12-20T14:59:24;46.10;;;40.57;;
59089;SDS011;44878;50.102;18.982;2022-12-20T15:01:53;47.95;;;42.78;;
59089;SDS011;44878;50.102;18.982;2022-12-20T15:04:30;51.77;;;45.80;;
59089;SDS011;44878;50.102;18.982;2022-12-20T15:06:59;49.23;;;43.20;;
59089;SDS011;44878;50.102;18.982;2022-12-20T15:09:26;48.72;;;43.42;;
59089;SDS011;44878;50.102;18.982;2022-12-20T15:11:53;47.93;;;42.93;;
59089;SDS011;44878;50.102;18.982;2022-12-20T15:14:34;52.70;;;44.80;;
59089;SDS011;44878;50.102;18.982;2022-12-20T15:17:08;50.23;;;43.73;;
59089;SDS011;44878;50.102;18.982;2022-12-20T15:19:37;48.90;;;42.67;;
59089;SDS011;44878;50.102;18.982;2022-12-20T15:22:04;50.77;;;44.63;;
59089;SDS011;44878;50.102;18.982;2022-12-20T15:24:30;48.93;;;42.77;;
59089;SDS011;44878;50.102;18.982;2022-12-20T15:26:57;48.20;;;42.08;;
59089;SDS011;44878;50.102;18.982;2022-12-20T15:29:27;50.63;;;44.53;;
59089;SDS011;44878;50.102;18.982;2022-12-20T15:32:04;48.20;;;42.87;;
59089;SDS011;44878;50.102;18.982;2022-12-20T15:34:40;49.03;;;43.70;;
59089;SDS011;44878;50.102;18.982;2022-12-20T15:37:08;77.43;;;69.03;;
59089;SDS011;44878;50.102;18.982;2022-12-20T15:39:39;52.37;;;45.93;;
59089;SDS011;44878;50.102;18.982;2022-12-20T15:42:05;51.17;;;45.60;;
59089;SDS011;44878;50.102;18.982;2022-12-20T15:44:34;50.47;;;44.70;;
59089;SDS011;44878;50.102;18.982;2022-12-20T15:47:02;55.40;;;48.33;;
59089;SDS011;44878;50.102;18.982;2022-12-20T15:49:29;51.67;;;46.07;;
59089;SDS011;44878;50.102;18.982;2022-12-20T15:51:57;73.30;;;62.27;;
59089;SDS011;44878;50.102;18.982;2022-12-20T15:54:24;50.30;;;43.07;;
59089;SDS011;44878;50.102;18.982;2022-12-20T15:56:56;49.20;;;43.97;;
59089;SDS011;44878;50.102;18.982;2022-12-20T15:59:37;47.80;;;42.60;;
59089;SDS011;44878;50.102;18.982;2022-12-20T16:02:37;50.27;;;44.73;;
59089;SDS011;44878;50.102;18.982;2022-12-20T16:04:57;49.40;;;43.97;;
59089;SDS011;44878;50.102;18.982;2022-12-20T16:07:24;51.78;;;44.70;;
59089;SDS011;44878;50.102;18.982;2022-12-20T16:09:49;87.90;;;78.87;;
59089;SDS011;44878;50.102;18.982;2022-12-20T16:12:26;53.07;;;45.43;;
59089;SDS011;44878;50.102;18.982;2022-12-20T16:14:54;50.40;;;44.90;;
59089;SDS011;44878;50.102;18.982;2022-12-20T16:17:22;52.20;;;45.05;;
59089;SDS011;44878;50.102;18.982;2022-12-20T16:19:48;52.97;;;44.95;;
59089;SDS011;44878;50.102;18.982;2022-12-20T16:22:16;51.77;;;46.13;;
59089;SDS011;44878;50.102;18.982;2022-12-20T16:24:44;56.87;;;47.60;;
59089;SDS011;44878;50.102;18.982;2022-12-20T16:27:11;52.20;;;46.42;;
59089;SDS011;44878;50.102;18.982;2022-12-20T16:29:37;55.07;;;46.77;;
59089;SDS011;44878;50.102;18.982;2022-12-20T16:32:09;54.20;;;47.60;;
59089;SDS011;44878;50.102;18.982;2022-12-20T16:34:39;50.63;;;44.80;;
59089;SDS011;44878;50.102;18.982;2022-12-20T16:37:06;68.50;;;61.17;;
59089;SDS011;44878;50.102;18.982;2022-12-20T16:39:32;77.50;;;69.00;;
59089;SDS011;44878;50.102;18.982;2022-12-20T16:41:58;58.23;;;50.10;;